Time;durP1;ratioP1;P1;durP2;ratioP2;P2;SDS_P1;SDS_P2;PMS_P1;PMS_P2;Temp;Humidity;BMP_temperature;BMP_pressure;BME280_temperature;BME280_humidity;BME280_pressure;Samples;Min_cycle;Max_cycle;Signal;HPM_P1;HPM_P2
2021/09/10 00:00:48;;;;;;;0.82;0.80;;;24.90;62.80;;;;;;5061768;28;20032;-36
2021/09/10 00:03:15;;;;;;;0.65;0.60;;;24.90;63.10;;;;;;5046073;28;20029;-36
2021/09/10 00:05:41;;;;;;;1.88;0.73;;;24.90;63.20;;;;;;5048652;28;20025;-36
2021/09/10 00:08:07;;;;;;;1.35;0.70;;;24.90;63.10;;;;;;5064868;28;20021;-36
2021/09/10 00:10:33;;;;;;;0.70;0.70;;;24.90;63.20;;;;;;5054554;28;20513;-36
2021/09/10 00:13:00;;;;;;;0.90;0.63;;;24.90;63.30;;;;;;5044965;28;20033;-36
2021/09/10 00:15:26;;;;;;;0.82;0.65;;;24.90;63.30;;;;;;5044701;28;20037;-36
2021/09/10 00:17:52;;;;;;;0.73;0.68;;;24.90;63.20;;;;;;5064298;28;20040;-36
2021/09/10 00:20:18;;;;;;;0.77;0.70;;;24.90;63.40;;;;;;5064363;28;20674;-36
2021/09/10 00:22:45;;;;;;;0.88;0.60;;;25.00;63.40;;;;;;5079215;28;20100;-36
2021/09/10 00:25:11;;;;;;;0.75;0.63;;;24.90;63.30;;;;;;5084401;28;20103;-36
2021/09/10 00:27:37;;;;;;;0.90;0.70;;;24.90;63.30;;;;;;5073112;28;20140;-36
2021/09/10 00:30:05;;;;;;;0.98;0.77;;;24.90;63.20;;;;;;5063731;28;20037;-36
2021/09/10 00:32:31;;;;;;;0.95;0.75;;;24.90;63.20;;;;;;5061335;28;20028;-36
2021/09/10 00:34:57;;;;;;;0.80;0.60;;;25.00;63.10;;;;;;5064118;28;20025;-36
2021/09/10 00:37:23;;;;;;;0.80;0.70;;;25.00;63.10;;;;;;5064235;28;20032;-36
2021/09/10 00:39:50;;;;;;;1.45;0.57;;;24.90;63.00;;;;;;5064003;28;20518;-36
2021/09/10 00:42:16;;;;;;;1.07;0.60;;;24.90;63.00;;;;;;5026814;28;20041;-36
2021/09/10 00:44:43;;;;;;;1.25;0.68;;;24.90;63.40;;;;;;5048015;28;20029;-35
2021/09/10 00:47:09;;;;;;;0.43;0.40;;;24.90;63.70;;;;;;5063779;28;20028;-36
2021/09/10 00:49:35;;;;;;;0.82;0.60;;;24.90;63.70;;;;;;5063332;28;20114;-35
2021/09/10 00:52:02;;;;;;;0.80;0.60;;;24.90;63.50;;;;;;5063886;28;20134;-36
2021/09/10 00:54:28;;;;;;;1.33;0.70;;;24.90;63.40;;;;;;5064065;28;20025;-36
2021/09/10 00:56:54;;;;;;;1.05;0.75;;;24.90;63.40;;;;;;5045726;28;20096;-36
2021/09/10 00:59:20;;;;;;;0.75;0.68;;;24.90;63.30;;;;;;5063476;28;20037;-36
2021/09/10 01:01:46;;;;;;;0.75;0.60;;;24.90;63.20;;;;;;5063676;28;20085;-36
2021/09/10 01:04:12;;;;;;;1.03;0.70;;;24.90;63.10;;;;;;5063749;28;20037;-36
2021/09/10 01:06:39;;;;;;;1.33;0.65;;;24.80;63.00;;;;;;5063427;28;20512;-36
2021/09/10 01:09:06;;;;;;;1.70;0.60;;;24.80;63.00;;;;;;5045557;28;20029;-36
2021/09/10 01:11:33;;;;;;;0.85;0.63;;;24.80;63.00;;;;;;5045604;28;20059;-37
2021/09/10 01:13:59;;;;;;;0.73;0.50;;;24.80;62.60;;;;;;5044224;28;20029;-36
2021/09/10 01:16:25;;;;;;;1.52;0.80;;;24.80;62.60;;;;;;5067168;28;20029;-36
2021/09/10 01:18:51;;;;;;;0.80;0.60;;;24.80;63.10;;;;;;5031415;28;20028;-36
2021/09/10 01:21:17;;;;;;;0.90;0.63;;;24.80;62.30;;;;;;5083514;28;20033;-36
2021/09/10 01:23:43;;;;;;;2.22;0.98;;;24.80;62.50;;;;;;5069398;28;20462;-36
2021/09/10 01:26:10;;;;;;;0.70;0.60;;;24.80;62.40;;;;;;5062524;28;20052;-36
2021/09/10 01:28:36;;;;;;;0.80;0.80;;;24.80;62.40;;;;;;5062545;28;20209;-36
2021/09/10 01:31:03;;;;;;;1.52;1.00;;;24.80;62.60;;;;;;5063227;28;20056;-36
2021/09/10 01:33:29;;;;;;;0.98;0.65;;;24.80;62.80;;;;;;5044993;28;20036;-36
2021/09/10 01:35:55;;;;;;;1.03;0.57;;;24.80;62.70;;;;;;5062280;28;20774;-36
2021/09/10 01:38:22;;;;;;;1.23;0.70;;;24.80;62.60;;;;;;5063379;28;20031;-37
2021/09/10 01:40:48;;;;;;;1.95;0.68;;;24.80;62.60;;;;;;5055456;28;20030;-36
2021/09/10 01:43:15;;;;;;;0.80;0.70;;;24.80;62.50;;;;;;5042825;28;20030;-36
2021/09/10 01:45:41;;;;;;;1.85;0.77;;;24.70;62.30;;;;;;5062559;28;20051;-36
2021/09/10 01:48:18;;;;;;;0.60;0.60;;;24.70;62.20;;;;;;5140860;27;20920;-37
2021/09/10 01:50:44;;;;;;;0.90;0.80;;;24.70;62.00;;;;;;5140852;27;20041;-37
2021/09/10 01:53:10;;;;;;;1.33;0.60;;;24.70;62.30;;;;;;5140506;28;20031;-36
2021/09/10 01:55:36;;;;;;;0.70;0.50;;;24.70;62.10;;;;;;5140602;28;20031;-37
2021/09/10 01:58:02;;;;;;;0.87;0.60;;;24.70;62.10;;;;;;5139270;28;20049;-37
2021/09/10 02:00:29;;;;;;;1.52;0.77;;;24.70;62.00;;;;;;5140860;28;20317;-37
2021/09/10 02:02:55;;;;;;;1.85;0.80;;;24.70;62.00;;;;;;5140343;28;20032;-36
2021/09/10 02:05:21;;;;;;;1.35;0.93;;;24.70;62.00;;;;;;5140690;28;20038;-37
2021/09/10 02:07:47;;;;;;;1.60;0.80;;;24.70;62.00;;;;;;5140379;28;20035;-37
2021/09/10 02:10:14;;;;;;;1.27;0.80;;;24.60;62.00;;;;;;5140566;28;20027;-37
2021/09/10 02:12:40;;;;;;;0.87;0.87;;;24.60;61.90;;;;;;5139494;27;20027;-37
2021/09/10 02:15:07;;;;;;;1.00;0.85;;;24.60;62.10;;;;;;5140441;28;20043;-37
2021/09/10 02:17:33;;;;;;;1.55;0.60;;;24.60;62.10;;;;;;5140373;27;20032;-37
2021/09/10 02:19:59;;;;;;;1.80;0.90;;;24.60;62.20;;;;;;5140357;27;20082;-37
2021/09/10 02:22:25;;;;;;;0.90;0.68;;;24.60;62.10;;;;;;5140050;28;20034;-39
2021/09/10 02:24:51;;;;;;;1.88;0.75;;;24.60;62.00;;;;;;5137759;27;20031;-37
2021/09/10 02:27:18;;;;;;;1.25;0.88;;;24.50;61.90;;;;;;5134811;28;20057;-37
2021/09/10 02:29:44;;;;;;;0.80;0.80;;;24.60;61.80;;;;;;5140251;28;20031;-37
2021/09/10 02:32:10;;;;;;;1.25;0.80;;;24.50;61.90;;;;;;5128616;27;20032;-37
2021/09/10 02:34:36;;;;;;;0.90;0.73;;;24.50;61.90;;;;;;5122769;28;20365;-37
2021/09/10 02:37:03;;;;;;;0.90;0.70;;;24.50;62.00;;;;;;5132178;27;20045;-37
2021/09/10 02:39:29;;;;;;;1.00;0.80;;;24.50;62.00;;;;;;5134831;28;20128;-37
2021/09/10 02:41:55;;;;;;;0.85;0.80;;;24.50;62.00;;;;;;5139337;27;20031;-36
2021/09/10 02:44:21;;;;;;;1.52;0.90;;;24.50;62.00;;;;;;5128218;27;20024;-37
2021/09/10 02:46:47;;;;;;;1.17;0.90;;;24.50;62.00;;;;;;5118989;28;20505;-36
2021/09/10 02:49:13;;;;;;;1.00;0.90;;;24.50;62.10;;;;;;5119248;28;20536;-37
2021/09/10 02:51:39;;;;;;;1.65;0.68;;;24.40;62.00;;;;;;5126691;28;20074;-37
2021/09/10 02:54:06;;;;;;;0.77;0.73;;;24.50;62.20;;;;;;5139211;28;20049;-37
2021/09/10 02:56:32;;;;;;;1.30;1.05;;;24.40;62.10;;;;;;5139346;28;20028;-37
2021/09/10 02:58:58;;;;;;;1.20;0.88;;;24.40;62.10;;;;;;5129406;28;20069;-37
2021/09/10 03:01:24;;;;;;;0.80;0.77;;;24.40;62.10;;;;;;5117920;28;20100;-37
2021/09/10 03:03:50;;;;;;;1.33;0.82;;;24.40;62.20;;;;;;5105195;28;20024;-36
2021/09/10 03:06:16;;;;;;;1.00;0.80;;;24.40;62.20;;;;;;5105376;28;20036;-37
2021/09/10 03:08:43;;;;;;;2.60;0.90;;;24.40;62.30;;;;;;5105094;28;20017;-37
2021/09/10 03:11:09;;;;;;;0.98;0.80;;;24.30;62.30;;;;;;5115973;28;20043;-36
2021/09/10 03:13:36;;;;;;;1.20;1.10;;;24.30;62.30;;;;;;5105165;28;20032;-37
2021/09/10 03:16:03;;;;;;;1.83;0.70;;;24.30;62.30;;;;;;5121502;28;20046;-37
2021/09/10 03:18:29;;;;;;;1.10;0.83;;;24.30;62.50;;;;;;5125247;28;20051;-36
2021/09/10 03:20:55;;;;;;;2.53;0.75;;;24.30;62.50;;;;;;5125568;28;20745;-38
2021/09/10 03:23:21;;;;;;;1.03;0.80;;;24.30;62.50;;;;;;5125401;28;20122;-37
2021/09/10 03:25:48;;;;;;;2.60;0.80;;;24.30;62.60;;;;;;5125033;28;20027;-37
2021/09/10 03:28:14;;;;;;;1.05;0.80;;;24.30;62.50;;;;;;5125441;28;20040;-36
2021/09/10 03:30:40;;;;;;;0.77;0.77;;;24.30;62.60;;;;;;5125283;28;20119;-37
2021/09/10 03:33:06;;;;;;;1.27;0.90;;;24.20;62.60;;;;;;5125167;28;20058;-37
2021/09/10 03:35:32;;;;;;;1.90;0.90;;;24.20;62.60;;;;;;5124915;28;20049;-37
2021/09/10 03:37:58;;;;;;;1.00;0.90;;;24.20;62.60;;;;;;5124942;28;20024;-37
2021/09/10 03:40:27;;;;;;;1.95;0.95;;;24.20;62.70;;;;;;5125271;28;20035;-37
2021/09/10 03:42:53;;;;;;;0.80;0.80;;;24.20;62.70;;;;;;5124911;28;20030;-37
2021/09/10 03:45:19;;;;;;;0.95;0.85;;;24.10;62.70;;;;;;5124778;28;20091;-37
2021/09/10 03:47:46;;;;;;;0.85;0.75;;;24.10;62.70;;;;;;5124837;28;20476;-37
2021/09/10 03:50:12;;;;;;;1.30;1.08;;;24.10;62.80;;;;;;5124982;28;20020;-37
2021/09/10 03:52:38;;;;;;;2.08;0.80;;;24.10;62.80;;;;;;5124852;27;20031;-37
2021/09/10 03:55:05;;;;;;;0.85;0.70;;;24.10;62.80;;;;;;5124592;28;20024;-37
2021/09/10 03:57:31;;;;;;;1.20;0.77;;;24.10;63.00;;;;;;5124679;28;20023;-37
2021/09/10 03:59:57;;;;;;;1.13;0.95;;;24.10;63.00;;;;;;5124616;28;20049;-37
2021/09/10 04:02:23;;;;;;;0.95;0.85;;;24.10;63.00;;;;;;5124708;28;20032;-37
2021/09/10 04:04:49;;;;;;;1.13;0.70;;;24.10;63.00;;;;;;5124781;28;20135;-37
2021/09/10 04:07:15;;;;;;;1.85;0.90;;;24.00;63.00;;;;;;5124360;28;20035;-36
2021/09/10 04:09:42;;;;;;;0.95;0.82;;;24.00;63.10;;;;;;5123484;28;20091;-37
2021/09/10 04:12:08;;;;;;;1.67;0.75;;;24.00;63.10;;;;;;5124455;28;20053;-37
2021/09/10 04:14:34;;;;;;;1.50;1.00;;;24.00;63.10;;;;;;5124316;28;20060;-37
2021/09/10 04:17:00;;;;;;;2.80;0.83;;;24.00;63.10;;;;;;5124483;28;20051;-36
2021/09/10 04:19:26;;;;;;;1.73;0.90;;;24.00;63.20;;;;;;5124156;28;20046;-37
2021/09/10 04:21:52;;;;;;;1.23;0.80;;;24.00;63.30;;;;;;5106584;28;20132;-37
2021/09/10 04:24:19;;;;;;;1.50;0.80;;;23.90;63.10;;;;;;5124039;27;20079;-36
2021/09/10 04:26:45;;;;;;;1.47;1.10;;;23.90;63.20;;;;;;5124099;28;20071;-37
2021/09/10 04:29:11;;;;;;;1.55;0.88;;;23.90;63.20;;;;;;5124159;28;20039;-37
2021/09/10 04:31:37;;;;;;;1.20;0.93;;;23.90;63.30;;;;;;5124286;28;20031;-37
2021/09/10 04:34:03;;;;;;;2.05;0.88;;;23.90;63.30;;;;;;5123629;28;20027;-37
2021/09/10 04:36:30;;;;;;;0.90;0.80;;;23.90;63.40;;;;;;5123923;28;20027;-37
2021/09/10 04:38:56;;;;;;;0.77;0.77;;;23.90;63.50;;;;;;5122454;28;20064;-37
2021/09/10 04:41:22;;;;;;;2.78;1.13;;;23.90;63.50;;;;;;5106987;28;20031;-36
2021/09/10 04:43:48;;;;;;;1.40;0.88;;;23.90;63.60;;;;;;5103604;28;20070;-37
2021/09/10 04:46:14;;;;;;;0.90;0.85;;;23.80;63.60;;;;;;5103214;28;20052;-37
2021/09/10 04:48:40;;;;;;;1.73;1.20;;;23.80;63.60;;;;;;5106130;28;20043;-37
2021/09/10 04:51:06;;;;;;;1.13;1.00;;;23.80;63.60;;;;;;5124030;28;20070;-37
2021/09/10 04:53:33;;;;;;;3.20;1.08;;;23.80;63.60;;;;;;5123926;28;20115;-37
2021/09/10 04:55:59;;;;;;;0.80;0.80;;;23.80;63.70;;;;;;5122763;28;20035;-37
2021/09/10 04:58:25;;;;;;;1.17;0.90;;;23.70;63.70;;;;;;5122550;28;20480;-37
2021/09/10 05:00:51;;;;;;;2.13;1.03;;;23.70;63.70;;;;;;5123744;28;20541;-37
2021/09/10 05:03:18;;;;;;;1.02;0.80;;;23.70;63.70;;;;;;5122441;28;20280;-37
2021/09/10 05:05:44;;;;;;;1.65;0.80;;;23.70;63.80;;;;;;5123296;28;20103;-37
2021/09/10 05:08:10;;;;;;;2.03;0.85;;;23.70;63.90;;;;;;5123394;28;20528;-37
2021/09/10 05:10:36;;;;;;;2.78;1.05;;;23.70;63.90;;;;;;5123034;28;20030;-37
2021/09/10 05:13:02;;;;;;;1.00;0.90;;;23.70;64.00;;;;;;5123540;28;20054;-37
2021/09/10 05:15:28;;;;;;;0.88;0.88;;;23.70;64.10;;;;;;5123256;28;20045;-37
2021/09/10 05:17:54;;;;;;;0.95;0.82;;;23.60;64.00;;;;;;5123552;28;20054;-37
2021/09/10 05:20:21;;;;;;;1.17;1.00;;;23.60;64.00;;;;;;5122966;28;20027;-37
2021/09/10 05:22:47;;;;;;;1.77;0.93;;;23.60;64.10;;;;;;5123125;28;20021;-37
2021/09/10 05:25:13;;;;;;;1.13;0.82;;;23.60;64.20;;;;;;5123179;28;20032;-37
2021/09/10 05:27:39;;;;;;;1.42;0.80;;;23.60;64.30;;;;;;5123088;28;20516;-36
2021/09/10 05:30:06;;;;;;;1.08;0.98;;;23.60;64.30;;;;;;5123545;28;20042;-36
2021/09/10 05:32:32;;;;;;;1.63;1.10;;;23.60;64.30;;;;;;5123403;28;20768;-36
2021/09/10 05:34:58;;;;;;;1.40;0.85;;;23.60;64.40;;;;;;5122660;28;20040;-36
2021/09/10 05:37:24;;;;;;;1.98;1.00;;;23.50;64.30;;;;;;5123237;28;20081;-37
2021/09/10 05:39:51;;;;;;;1.23;1.02;;;23.50;64.30;;;;;;5123101;28;20028;-37
2021/09/10 05:42:17;;;;;;;1.00;0.60;;;23.50;64.40;;;;;;5121224;28;20122;-36
2021/09/10 05:44:43;;;;;;;1.10;0.90;;;23.50;64.40;;;;;;5123127;28;20100;-37
2021/09/10 05:47:09;;;;;;;1.25;0.90;;;23.50;64.50;;;;;;5122641;28;20113;-36
2021/09/10 05:49:35;;;;;;;1.38;0.90;;;23.50;64.50;;;;;;5122848;28;20023;-37
2021/09/10 05:52:02;;;;;;;1.07;0.93;;;23.50;64.60;;;;;;5123091;28;20102;-37
2021/09/10 05:54:28;;;;;;;1.10;0.90;;;23.50;64.60;;;;;;5123173;28;20047;-36
2021/09/10 05:56:54;;;;;;;1.60;1.10;;;23.40;64.70;;;;;;5122738;28;20489;-37
2021/09/10 05:59:20;;;;;;;2.08;1.10;;;23.40;64.70;;;;;;5122541;28;20035;-37
2021/09/10 06:01:47;;;;;;;1.13;0.90;;;23.40;64.80;;;;;;5110648;28;20040;-37
2021/09/10 06:04:13;;;;;;;1.25;1.00;;;23.40;64.80;;;;;;5102337;28;20020;-37
2021/09/10 06:06:39;;;;;;;1.00;0.90;;;23.40;64.90;;;;;;5102425;28;20042;-37
2021/09/10 06:09:05;;;;;;;1.40;1.08;;;23.40;64.90;;;;;;5115722;28;20038;-37
2021/09/10 06:11:32;;;;;;;1.13;1.00;;;23.40;64.90;;;;;;5122685;28;20050;-36
2021/09/10 06:13:59;;;;;;;2.10;0.80;;;23.30;64.80;;;;;;5122875;28;20027;-37
2021/09/10 06:16:26;;;;;;;2.58;0.90;;;23.30;64.90;;;;;;5122322;28;20019;-36
2021/09/10 06:18:52;;;;;;;1.23;0.93;;;23.30;65.00;;;;;;5122349;28;20032;-36
2021/09/10 06:21:18;;;;;;;1.17;0.70;;;23.30;65.00;;;;;;5122877;28;20103;-37
2021/09/10 06:23:45;;;;;;;1.98;0.93;;;23.30;65.10;;;;;;5122903;28;20019;-36
2021/09/10 06:26:11;;;;;;;1.65;1.10;;;23.30;65.10;;;;;;5122682;28;20724;-36
2021/09/10 06:28:37;;;;;;;1.10;1.00;;;23.30;65.10;;;;;;5122400;28;20036;-36
2021/09/10 06:31:05;;;;;;;1.20;0.90;;;23.20;65.10;;;;;;5121316;28;20023;-36
2021/09/10 06:33:31;;;;;;;1.40;0.82;;;23.20;65.20;;;;;;5123783;28;20031;-37
2021/09/10 06:35:57;;;;;;;1.67;1.17;;;23.20;65.20;;;;;;5126518;28;20020;-37
2021/09/10 06:38:23;;;;;;;3.05;1.20;;;23.20;65.30;;;;;;5126486;28;20024;-37
2021/09/10 06:40:50;;;;;;;1.17;0.85;;;23.20;65.30;;;;;;5125989;28;20092;-36
2021/09/10 06:43:16;;;;;;;2.75;1.00;;;23.20;65.30;;;;;;5126335;28;20042;-36
2021/09/10 06:45:44;;;;;;;1.58;1.10;;;23.20;65.40;;;;;;5126218;28;20038;-36
2021/09/10 06:48:11;;;;;;;1.25;1.00;;;23.20;65.50;;;;;;5125883;28;20062;-36
2021/09/10 06:50:37;;;;;;;2.70;0.90;;;23.10;65.30;;;;;;5125691;28;20047;-37
2021/09/10 06:53:04;;;;;;;1.10;0.95;;;23.10;65.40;;;;;;5126155;28;20272;-37
2021/09/10 06:55:30;;;;;;;1.15;0.80;;;23.10;65.40;;;;;;5126232;28;20442;-37
2021/09/10 06:57:56;;;;;;;1.20;0.83;;;23.10;65.50;;;;;;5126029;28;20033;-37
2021/09/10 07:00:22;;;;;;;0.85;0.85;;;23.10;65.60;;;;;;5125854;28;20058;-36
2021/09/10 07:02:48;;;;;;;1.33;1.00;;;23.10;65.60;;;;;;5125884;28;20019;-37
2021/09/10 07:05:15;;;;;;;1.60;0.95;;;23.10;65.70;;;;;;5125656;28;20766;-37
2021/09/10 07:07:41;;;;;;;1.30;1.17;;;23.10;65.60;;;;;;5125503;28;20039;-37
2021/09/10 07:10:08;;;;;;;1.50;1.20;;;23.10;65.70;;;;;;5125490;27;20556;-37
2021/09/10 07:12:34;;;;;;;1.20;0.98;;;23.00;65.80;;;;;;5125609;28;20148;-36
2021/09/10 07:15:00;;;;;;;0.80;0.80;;;23.00;65.80;;;;;;5125740;28;20031;-37
2021/09/10 07:17:27;;;;;;;1.37;0.97;;;23.00;65.80;;;;;;5125495;28;20038;-36
2021/09/10 07:19:54;;;;;;;1.60;1.27;;;23.00;65.80;;;;;;5125193;28;20032;-37
2021/09/10 07:22:20;;;;;;;1.85;1.10;;;23.00;65.90;;;;;;5125596;28;20035;-36
2021/09/10 07:24:46;;;;;;;1.67;0.95;;;23.00;65.90;;;;;;5125410;27;20035;-37
2021/09/10 07:27:12;;;;;;;0.93;0.60;;;23.00;66.00;;;;;;5125050;28;20093;-36
2021/09/10 07:29:39;;;;;;;1.80;0.85;;;23.00;66.70;;;;;;5125499;27;20099;-36
2021/09/10 07:32:05;;;;;;;1.23;0.93;;;22.90;65.90;;;;;;5124943;28;20078;-37
2021/09/10 07:34:32;;;;;;;1.00;0.77;;;22.90;66.00;;;;;;5125567;28;20051;-36
2021/09/10 07:36:59;;;;;;;2.43;1.20;;;22.90;66.10;;;;;;5125269;28;20084;-37
2021/09/10 07:39:25;;;;;;;1.20;1.02;;;22.90;66.10;;;;;;5124936;28;20034;-37
2021/09/10 07:41:52;;;;;;;2.45;1.20;;;22.90;66.10;;;;;;5122713;28;20027;-36
2021/09/10 07:44:18;;;;;;;1.40;0.83;;;22.90;66.10;;;;;;5120205;28;20020;-37
2021/09/10 07:46:46;;;;;;;2.07;1.20;;;22.80;66.10;;;;;;5124886;28;20043;-37
2021/09/10 07:49:12;;;;;;;1.15;0.77;;;22.80;66.10;;;;;;5125028;28;20103;-37
2021/09/10 07:51:38;;;;;;;2.35;1.00;;;22.80;66.10;;;;;;5124582;28;20057;-37
2021/09/10 07:54:05;;;;;;;1.47;0.80;;;22.80;66.20;;;;;;5124875;28;20630;-36
2021/09/10 07:56:31;;;;;;;1.33;1.08;;;22.80;66.30;;;;;;5124929;28;20087;-37
2021/09/10 07:58:58;;;;;;;1.10;1.00;;;22.80;66.20;;;;;;5124854;28;20567;-37
2021/09/10 08:01:24;;;;;;;1.47;1.30;;;22.80;66.30;;;;;;5124274;28;20570;-36
2021/09/10 08:03:50;;;;;;;1.10;1.00;;;22.80;66.40;;;;;;5124806;28;21009;-37
2021/09/10 08:06:17;;;;;;;1.27;0.90;;;22.70;66.40;;;;;;5124274;28;20272;-37
2021/09/10 08:08:43;;;;;;;1.10;0.83;;;22.70;66.40;;;;;;5124592;28;20047;-37
2021/09/10 08:11:09;;;;;;;1.05;0.90;;;22.70;66.40;;;;;;5124326;28;20059;-37
2021/09/10 08:13:36;;;;;;;1.48;1.20;;;22.70;66.50;;;;;;5122720;28;20060;-37
2021/09/10 08:16:03;;;;;;;1.37;1.00;;;22.70;66.50;;;;;;5124440;28;20843;-36
2021/09/10 08:18:29;;;;;;;1.90;1.17;;;22.70;66.50;;;;;;5124407;28;20061;-36
2021/09/10 08:20:57;;;;;;;1.40;0.98;;;22.70;66.50;;;;;;5122838;28;20019;-37
2021/09/10 08:23:23;;;;;;;;;;;22.70;66.50;;;;;;5124778;28;20032;-37
2021/09/10 08:25:49;;;;;;;1.25;1.00;;;22.70;66.60;;;;;;5124357;28;19904;-37
2021/09/10 08:28:16;;;;;;;2.55;1.35;;;22.60;66.60;;;;;;5123869;28;20049;-36
2021/09/10 08:30:44;;;;;;;2.72;1.02;;;22.60;66.60;;;;;;5123838;28;20031;-36
2021/09/10 08:33:13;;;;;;;2.03;1.33;;;22.60;66.60;;;;;;5124321;28;20061;-36
2021/09/10 08:35:39;;;;;;;1.60;1.02;;;22.60;67.40;;;;;;5123702;28;20034;-36
2021/09/10 08:38:06;;;;;;;1.50;1.05;;;22.60;66.70;;;;;;5124011;28;20134;-36
2021/09/10 08:40:35;;;;;;;2.10;1.23;;;22.60;66.70;;;;;;5124097;28;20036;-36
2021/09/10 08:43:01;;;;;;;1.20;1.10;;;22.60;66.80;;;;;;5121351;28;20035;-36
2021/09/10 08:45:28;;;;;;;1.40;0.93;;;22.60;66.80;;;;;;5123912;28;20076;-36
2021/09/10 08:47:54;;;;;;;1.10;1.00;;;22.50;66.80;;;;;;5122880;28;20069;-37
2021/09/10 08:50:21;;;;;;;2.03;1.13;;;22.50;66.90;;;;;;5123997;28;20031;-36
2021/09/10 08:52:47;;;;;;;2.00;1.10;;;22.60;66.90;;;;;;5123676;28;20028;-36
2021/09/10 08:55:16;;;;;;;1.52;1.10;;;22.50;66.90;;;;;;5123241;28;20031;-36
2021/09/10 08:57:49;;;;;;;1.30;1.10;;;22.50;66.90;;;;;;5122890;28;20035;-36
2021/09/10 09:00:19;;;;;;;1.35;1.10;;;22.50;66.90;;;;;;5123471;28;20035;-37
2021/09/10 09:03:06;;;;;;;1.35;0.88;;;22.50;67.00;;;;;;5123431;28;20028;-36
2021/09/10 09:05:32;;;;;;;1.95;1.00;;;22.50;67.10;;;;;;5123225;28;20479;-37
2021/09/10 09:08:08;;;;;;;1.80;1.10;;;22.50;67.10;;;;;;5123242;28;20023;-37
2021/09/10 09:11:11;;;;;;;1.50;0.98;;;22.40;67.00;;;;;;5123525;28;20020;-36
2021/09/10 09:13:46;;;;;;;1.85;1.05;;;22.40;67.10;;;;;;5114585;28;20024;-36
2021/09/10 09:16:30;;;;;;;2.72;1.05;;;22.40;67.10;;;;;;5116141;28;20028;-36
2021/09/10 09:19:01;;;;;;;1.05;0.95;;;22.40;67.20;;;;;;5122771;28;20040;-38
2021/09/10 09:21:38;;;;;;;1.33;1.00;;;22.40;67.20;;;;;;5119863;28;20054;-37
2021/09/10 09:24:13;;;;;;;1.35;1.08;;;22.40;67.20;;;;;;5121804;28;20024;-37
2021/09/10 09:26:40;;;;;;;1.30;1.15;;;22.40;67.30;;;;;;5119651;28;20038;-36
2021/09/10 09:29:11;;;;;;;1.00;0.80;;;22.30;67.40;;;;;;5122961;28;20027;-36
2021/09/10 09:31:38;;;;;;;1.35;1.13;;;22.30;67.30;;;;;;5121772;28;20032;-36
2021/09/10 09:34:04;;;;;;;1.30;1.00;;;22.30;67.30;;;;;;5104999;28;20020;-36
2021/09/10 09:36:31;;;;;;;1.83;1.00;;;22.30;67.30;;;;;;5123084;28;20038;-37
2021/09/10 09:38:58;;;;;;;1.03;0.93;;;22.30;67.40;;;;;;5122949;28;20039;-36
2021/09/10 09:41:24;;;;;;;0.75;0.73;;;22.30;67.40;;;;;;5118405;28;20031;-37
2021/09/10 09:43:53;;;;;;;1.50;1.10;;;22.30;67.40;;;;;;5121823;28;20036;-37
2021/09/10 09:46:22;;;;;;;1.50;1.02;;;22.30;67.50;;;;;;5122842;28;20073;-37
2021/09/10 09:48:50;;;;;;;1.80;1.00;;;22.30;67.50;;;;;;5123014;28;20035;-37
2021/09/10 09:51:18;;;;;;;2.35;0.80;;;22.30;67.60;;;;;;5123108;28;20031;-37
2021/09/10 09:53:45;;;;;;;0.93;0.73;;;22.20;67.50;;;;;;5122620;28;20056;-37
2021/09/10 09:56:11;;;;;;;2.08;0.90;;;22.20;67.50;;;;;;5122806;28;20036;-36
2021/09/10 09:58:38;;;;;;;1.33;0.90;;;22.20;67.60;;;;;;5122737;28;20039;-36
2021/09/10 10:01:05;;;;;;;1.30;0.80;;;22.20;67.60;;;;;;5117599;28;20136;-36
2021/09/10 10:03:31;;;;;;;1.95;0.90;;;22.20;67.60;;;;;;5103269;28;20028;-36
2021/09/10 10:06:04;;;;;;;1.20;1.03;;;22.20;67.60;;;;;;5122879;28;20024;-36
2021/09/10 10:08:41;;;;;;;1.13;0.80;;;22.20;67.70;;;;;;5124179;28;20048;-36
2021/09/10 10:11:17;;;;;;;0.95;0.85;;;22.20;67.60;;;;;;5105236;28;20036;-36
2021/09/10 10:13:44;;;;;;;1.45;0.93;;;22.20;67.70;;;;;;5106302;28;20028;-36
2021/09/10 10:16:43;;;;;;;1.80;1.00;;;22.20;67.80;;;;;;5105162;28;20031;-37
2021/09/10 10:19:21;;;;;;;;;;;22.20;67.80;;;;;;5116896;28;20062;-37
2021/09/10 10:22:03;;;;;;;0.98;0.88;;;22.10;67.80;;;;;;5126696;28;20348;-44
2021/09/10 10:24:51;;;;;;;0.88;0.80;;;22.10;67.90;;;;;;5126674;28;20047;-37
2021/09/10 10:27:35;;;;;;;1.65;1.08;;;22.10;67.80;;;;;;5126498;28;20100;-36
2021/09/10 10:30:04;;;;;;;1.05;0.95;;;22.10;67.90;;;;;;5126637;28;20065;-36
2021/09/10 10:32:38;;;;;;;1.42;1.02;;;22.10;67.90;;;;;;5109030;28;20039;-37
2021/09/10 10:35:24;;;;;;;1.13;0.90;;;22.10;67.90;;;;;;5106138;28;20024;-37
2021/09/10 10:38:02;;;;;;;0.88;0.82;;;22.00;67.90;;;;;;5123592;28;20024;-36
2021/09/10 10:40:30;;;;;;;;;;;22.10;68.00;;;;;;5126971;28;20028;-37
2021/09/10 10:43:03;;;;;;;2.03;0.90;;;22.00;67.90;;;;;;5126082;28;19908;-36
2021/09/10 10:45:47;;;;;;;2.35;1.00;;;22.00;68.00;;;;;;5126385;28;20027;-36
2021/09/10 10:48:33;;;;;;;1.10;0.82;;;22.00;68.00;;;;;;5125951;28;20048;-36
2021/09/10 10:51:03;;;;;;;1.35;0.95;;;22.00;68.10;;;;;;5126296;28;20106;-36
2021/09/10 10:53:58;;;;;;;1.25;0.93;;;22.00;68.20;;;;;;5125744;28;20496;-37
2021/09/10 10:56:25;;;;;;;1.40;1.00;;;22.00;68.10;;;;;;5115769;28;20039;-36
2021/09/10 10:59:12;;;;;;;1.70;0.98;;;21.90;68.10;;;;;;5125687;28;20024;-36
2021/09/10 11:02:22;;;;;;;1.63;0.80;;;22.00;68.20;;;;;;5115675;28;20042;-37
2021/09/10 11:04:52;;;;;;;1.55;0.88;;;21.90;68.20;;;;;;5125651;28;20012;-37
2021/09/10 11:07:21;;;;;;;0.80;0.80;;;21.90;68.20;;;;;;5125898;28;20157;-36
2021/09/10 11:10:18;;;;;;;2.03;1.00;;;21.90;68.30;;;;;;5125835;28;20024;-36
2021/09/10 11:12:45;;;;;;;1.48;0.82;;;21.90;68.40;;;;;;5104024;28;20038;-37
2021/09/10 11:15:28;;;;;;;1.42;0.80;;;21.90;68.40;;;;;;5122370;28;20031;-36
2021/09/10 11:17:59;;;;;;;0.80;0.80;;;21.90;68.40;;;;;;5125724;28;20024;-36
2021/09/10 11:20:36;;;;;;;1.05;0.88;;;21.90;68.40;;;;;;5125199;28;20043;-36
2021/09/10 11:23:07;;;;;;;2.30;0.88;;;21.80;68.30;;;;;;5125240;28;20057;-36
2021/09/10 11:25:33;;;;;;;1.15;0.93;;;21.80;68.40;;;;;;5119467;28;20483;-36
2021/09/10 11:28:06;;;;;;;1.47;0.87;;;21.80;68.40;;;;;;5104984;28;20043;-36
2021/09/10 11:30:33;;;;;;;0.95;0.70;;;21.80;68.40;;;;;;5119955;28;20268;-36
2021/09/10 11:33:00;;;;;;;1.20;0.70;;;21.80;68.50;;;;;;5125445;28;20053;-36
2021/09/10 11:35:28;;;;;;;1.35;0.80;;;21.80;68.50;;;;;;5125490;28;20034;-37
2021/09/10 11:38:08;;;;;;;1.08;0.82;;;21.70;68.50;;;;;;5125703;28;20054;-36
2021/09/10 11:40:40;;;;;;;1.25;0.90;;;21.80;68.60;;;;;;5125407;28;20023;-36
2021/09/10 11:43:13;;;;;;;1.15;0.82;;;21.80;68.60;;;;;;5125204;28;20088;-36
2021/09/10 11:45:45;;;;;;;0.90;0.70;;;21.80;68.60;;;;;;5125348;28;20059;-36
2021/09/10 11:48:13;;;;;;;0.90;0.68;;;21.70;68.60;;;;;;5117838;28;20767;-37
2021/09/10 11:51:03;;;;;;;2.13;1.05;;;21.80;68.70;;;;;;5104641;28;20032;-37
2021/09/10 11:53:30;;;;;;;0.98;0.70;;;21.70;68.60;;;;;;5104600;28;20039;-37
2021/09/10 11:56:01;;;;;;;1.55;0.90;;;21.70;68.60;;;;;;5108628;28;20675;-37
2021/09/10 11:58:41;;;;;;;1.08;0.80;;;21.70;68.70;;;;;;5128076;27;20058;-36
2021/09/10 12:01:28;;;;;;;1.08;0.80;;;21.70;68.70;;;;;;5123602;28;20131;-36
2021/09/10 12:04:02;;;;;;;1.20;0.80;;;21.70;68.70;;;;;;5124706;28;20095;-36
2021/09/10 12:06:30;;;;;;;1.10;0.90;;;21.70;68.70;;;;;;5124810;28;20686;-36
2021/09/10 12:09:22;;;;;;;1.00;0.80;;;21.70;68.80;;;;;;5124969;28;20027;-37
2021/09/10 12:12:15;;;;;;;2.22;0.90;;;21.70;68.80;;;;;;5124773;28;20024;-37
2021/09/10 12:15:04;;;;;;;0.90;0.73;;;21.70;68.80;;;;;;5123931;28;20028;-37
2021/09/10 12:17:36;;;;;;;0.90;0.73;;;21.60;68.80;;;;;;5124787;28;20046;-36
2021/09/10 12:20:09;;;;;;;1.23;0.82;;;21.60;68.80;;;;;;5124356;28;20032;-36
2021/09/10 12:22:50;;;;;;;2.47;1.00;;;21.60;68.80;;;;;;5124587;28;20084;-36
2021/09/10 12:25:25;;;;;;;0.85;0.70;;;21.60;68.80;;;;;;5124396;28;20032;-36
2021/09/10 12:27:54;;;;;;;1.27;0.80;;;21.60;68.90;;;;;;5124230;28;20050;-37
2021/09/10 12:30:22;;;;;;;3.92;1.10;;;21.60;68.90;;;;;;5124212;28;20078;-37
2021/09/10 12:32:49;;;;;;;1.27;0.98;;;21.60;68.90;;;;;;5124027;28;20027;-36
2021/09/10 12:35:15;;;;;;;0.98;0.70;;;21.50;68.90;;;;;;5123890;28;20024;-36
2021/09/10 12:37:41;;;;;;;1.27;0.93;;;21.60;69.00;;;;;;5123791;28;20053;-37
2021/09/10 12:40:08;;;;;;;1.50;0.80;;;21.60;69.00;;;;;;5124190;28;20023;-36
2021/09/10 12:42:34;;;;;;;1.20;0.77;;;21.60;68.90;;;;;;5124043;28;20028;-37
2021/09/10 12:45:00;;;;;;;0.95;0.70;;;21.50;68.90;;;;;;5124057;28;20023;-36
2021/09/10 12:47:26;;;;;;;0.90;0.70;;;21.50;68.90;;;;;;5123808;28;20067;-36
2021/09/10 12:49:52;;;;;;;1.20;0.90;;;21.50;68.90;;;;;;5123272;28;20577;-36
2021/09/10 12:52:18;;;;;;;1.83;0.85;;;21.50;69.00;;;;;;5123970;28;20032;-36
2021/09/10 12:54:44;;;;;;;1.60;0.77;;;21.50;69.00;;;;;;5123509;28;20030;-36